createdAt,value
2023-03-20T00:02:05.138Z,58.48
2023-03-20T00:04:36.016Z,60.31
2023-03-20T00:07:10.703Z,62.52
2023-03-20T00:09:41.332Z,64.12
2023-03-20T00:12:15.235Z,59.24
2023-03-20T00:14:46.497Z,56.78
2023-03-20T00:17:20.570Z,57.11
2023-03-20T00:19:51.760Z,59.08
2023-03-20T00:22:22.753Z,59.31
2023-03-20T00:24:54.750Z,60.15
2023-03-20T00:27:25.808Z,64.60
2023-03-20T00:29:57.446Z,67.03
2023-03-20T00:32:28.281Z,63.39
2023-03-20T00:35:01.327Z,61.39
2023-03-20T00:37:32.213Z,57.32
2023-03-20T00:40:02.826Z,54.37
2023-03-20T00:42:33.733Z,54.65
2023-03-20T00:45:05.540Z,55.69
2023-03-20T00:47:41.049Z,56.89
2023-03-20T00:50:18.006Z,57.75
2023-03-20T00:52:49.056Z,58.74
2023-03-20T00:55:20.247Z,59.42
2023-03-20T00:57:53.627Z,62.87
2023-03-20T01:00:36.993Z,64.75
2023-03-20T01:03:13.320Z,63.16
2023-03-20T01:05:44.258Z,61.66
2023-03-20T01:08:16.690Z,57.34
2023-03-20T01:10:48.177Z,55.12
2023-03-20T01:13:23.446Z,55.73
2023-03-20T01:15:54.776Z,57.18
2023-03-20T01:18:26.701Z,58.05
2023-03-20T01:20:57.361Z,59.29
2023-03-20T01:23:28.291Z,59.84
2023-03-20T01:25:59.641Z,61.56
2023-03-20T01:28:31.468Z,63.35
2023-03-20T01:31:02.236Z,66.42
2023-03-20T01:33:34.615Z,64.14
2023-03-20T01:36:05.423Z,60.24
2023-03-20T01:38:36.520Z,55.48
2023-03-20T01:41:08.144Z,55.56
2023-03-20T01:43:40.766Z,57.33
2023-03-20T01:46:19.786Z,58.42
2023-03-20T01:48:59.502Z,59.54
2023-03-20T01:51:33.084Z,63.56
2023-03-20T01:54:08.908Z,65.40
2023-03-20T01:56:43.057Z,62.88
2023-03-20T01:59:16.022Z,58.72
2023-03-20T02:01:47.593Z,58.50
2023-03-20T02:04:18.589Z,60.75
2023-03-20T02:06:55.415Z,60.11
2023-03-20T02:09:41.913Z,61.10
2023-03-20T02:12:17.151Z,64.77
2023-03-20T02:14:48.803Z,62.88
2023-03-20T02:17:33.570Z,62.55
2023-03-20T02:20:15.971Z,58.05
2023-03-20T02:22:57.239Z,58.45
2023-03-20T02:25:44.745Z,61.13
2023-03-20T02:28:39.596Z,64.23
2023-03-20T02:31:29.865Z,62.68
2023-03-20T02:34:15.072Z,59.27
2023-03-20T02:36:56.116Z,56.62
2023-03-20T02:39:40.490Z,60.00
2023-03-20T02:42:15.660Z,63.14
2023-03-20T02:44:48.996Z,63.73
2023-03-20T02:47:22.820Z,61.09
2023-03-20T02:49:57.741Z,58.28
2023-03-20T02:52:35.054Z,57.71
2023-03-20T02:55:12.424Z,59.65
2023-03-20T02:57:45.915Z,64.42
2023-03-20T03:00:18.077Z,66.25
2023-03-20T03:02:53.255Z,63.54
2023-03-20T03:05:25.349Z,60.17
2023-03-20T03:07:59.898Z,57.02
2023-03-20T03:10:33.264Z,58.27
2023-03-20T03:13:06.601Z,59.79
2023-03-20T03:15:38.766Z,59.81
2023-03-20T03:18:13.072Z,60.78
2023-03-20T03:20:44.935Z,66.54
2023-03-20T03:23:26.676Z,68.66
2023-03-20T03:25:59.096Z,63.32
2023-03-20T03:28:37.182Z,57.69
2023-03-20T03:31:09.331Z,57.79
2023-03-20T03:33:41.080Z,59.90
2023-03-20T03:36:14.386Z,64.15
2023-03-20T03:38:48.200Z,63.05
2023-03-20T03:41:22.295Z,60.78
2023-03-20T03:43:55.422Z,58.00
2023-03-20T03:46:27.627Z,56.95
2023-03-20T03:48:58.979Z,58.34
2023-03-20T03:51:32.346Z,60.89
2023-03-20T03:54:11.059Z,66.61
2023-03-20T03:56:43.429Z,63.67
2023-03-20T03:59:19.268Z,59.87
2023-03-20T04:01:52.044Z,57.54
2023-03-20T04:04:23.468Z,58.85
2023-03-20T04:06:54.343Z,61.15
2023-03-20T04:09:25.284Z,64.71
2023-03-20T04:11:56.636Z,63.68
2023-03-20T04:14:27.488Z,60.15
2023-03-20T04:16:58.304Z,57.27
2023-03-20T04:19:29.346Z,57.43
2023-03-20T04:21:59.923Z,59.30
2023-03-20T04:24:30.915Z,64.24
2023-03-20T04:27:01.767Z,64.96
2023-03-20T04:29:33.307Z,61.68
2023-03-20T04:32:13.907Z,60.56
2023-03-20T04:35:03.371Z,56.36
2023-03-20T04:37:59.779Z,57.00
2023-03-20T04:40:31.840Z,60.12
2023-03-20T04:43:02.706Z,64.04
2023-03-20T04:45:33.754Z,63.91
2023-03-20T04:48:04.657Z,62.12
2023-03-20T04:50:36.110Z,58.45
2023-03-20T04:53:07.044Z,56.35
2023-03-20T04:55:38.098Z,57.14
2023-03-20T04:58:09.122Z,58.77
2023-03-20T05:00:40.525Z,60.66
2023-03-20T05:03:11.201Z,64.19
2023-03-20T05:05:43.876Z,66.26
2023-03-20T05:08:14.921Z,61.81
2023-03-20T05:10:47.496Z,57.21
2023-03-20T05:13:36.665Z,58.02
2023-03-20T05:16:23.905Z,59.95
2023-03-20T05:19:15.200Z,65.71
2023-03-20T05:22:01.545Z,62.38
2023-03-20T05:24:53.842Z,56.82
2023-03-20T05:27:53.749Z,59.31
2023-03-20T05:30:47.655Z,63.42
2023-03-20T05:33:50.919Z,60.93
2023-03-20T05:36:40.266Z,57.01
2023-03-20T05:39:29.456Z,58.68
2023-03-20T05:42:19.137Z,60.65
2023-03-20T05:45:10.052Z,66.07
2023-03-20T05:48:18.778Z,63.86
2023-03-20T05:51:13.001Z,58.48
2023-03-20T05:54:00.463Z,56.68
2023-03-20T05:56:32.324Z,58.97
2023-03-20T05:59:23.634Z,59.66
2023-03-20T06:02:17.434Z,64.05
2023-03-20T06:04:54.094Z,63.56
2023-03-20T06:07:39.319Z,58.37
2023-03-20T06:10:14.468Z,56.57
2023-03-20T06:12:45.803Z,59.38
2023-03-20T06:15:17.203Z,62.36
2023-03-20T06:17:53.474Z,62.91
2023-03-20T06:20:24.810Z,59.20
2023-03-20T06:22:55.965Z,56.56
2023-03-20T06:25:27.091Z,58.78
2023-03-20T06:27:58.032Z,60.56
2023-03-20T06:30:28.967Z,63.15
2023-03-20T06:33:00.007Z,65.21
2023-03-20T06:35:38.579Z,61.28
2023-03-20T06:38:09.461Z,55.96
2023-03-20T06:40:40.812Z,56.61
2023-03-20T06:43:12.976Z,58.99
2023-03-20T06:45:48.765Z,61.14
2023-03-20T06:48:27.335Z,62.00
2023-03-20T06:50:58.248Z,63.03
2023-03-20T06:53:33.520Z,60.32
2023-03-20T06:56:09.536Z,55.96
2023-03-20T06:58:43.627Z,56.20
2023-03-20T07:01:17.788Z,57.70
2023-03-20T07:03:46.965Z,58.30
2023-03-20T07:06:18.917Z,59.19
2023-03-20T07:08:49.861Z,59.37
2023-03-20T07:11:21.558Z,59.86
2023-03-20T07:13:52.518Z,60.09
2023-03-20T07:16:32.655Z,60.50
2023-03-20T07:19:04.001Z,60.73
2023-03-20T07:21:38.017Z,60.76
2023-03-20T07:24:09.146Z,61.16
2023-03-20T07:26:41.456Z,60.97
2023-03-20T07:29:12.359Z,60.85
2023-03-20T07:31:44.435Z,60.67
2023-03-20T07:34:18.855Z,60.59
2023-03-20T07:36:50.084Z,59.65
2023-03-20T07:39:21.704Z,59.06
2023-03-20T07:42:02.817Z,58.35
2023-03-20T07:44:46.143Z,57.77
2023-03-20T07:47:17.035Z,57.54
2023-03-20T07:49:48.076Z,57.53
2023-03-20T07:52:18.852Z,57.57
2023-03-20T07:54:49.590Z,57.61
2023-03-20T07:57:20.932Z,57.61
2023-03-20T07:59:51.662Z,57.78
2023-03-20T08:02:22.498Z,57.77
2023-03-20T08:04:53.217Z,57.69
2023-03-20T08:31:50.270Z,56.13
2023-03-20T08:34:22.915Z,56.28
2023-03-20T08:36:55.156Z,56.40
2023-03-20T08:39:26.227Z,56.20
2023-03-20T08:41:58.910Z,56.11
2023-03-20T08:44:30.532Z,56.17
2023-03-20T08:47:01.819Z,55.94
2023-03-20T08:49:32.541Z,55.52
2023-03-20T08:52:03.482Z,55.48
2023-03-20T08:54:35.224Z,55.20
2023-03-20T08:57:05.861Z,55.05
2023-03-20T08:59:37.104Z,55.23
2023-03-20T09:02:08.325Z,55.32
2023-03-20T09:04:39.046Z,56.48
2023-03-20T09:07:09.615Z,57.79
2023-03-20T09:09:40.102Z,57.98
2023-03-20T09:12:10.781Z,57.52
2023-03-20T09:14:42.076Z,57.44
2023-03-20T09:17:13.265Z,56.76
2023-03-20T09:19:44.972Z,56.05
2023-03-20T09:22:18.302Z,55.99
2023-03-20T09:24:49.470Z,56.48
2023-03-20T09:27:20.196Z,55.87
2023-03-20T09:29:51.030Z,56.00
2023-03-20T09:32:22.043Z,56.25
2023-03-20T09:34:52.796Z,56.30
2023-03-20T09:37:23.652Z,56.74
2023-03-20T09:39:54.477Z,56.94
2023-03-20T09:42:31.936Z,56.91
2023-03-20T09:45:06.807Z,56.79
2023-03-20T09:47:41.680Z,56.90
2023-03-20T09:50:22.611Z,57.10
2023-03-20T09:52:57.679Z,57.59
2023-03-20T09:55:31.550Z,57.98
2023-03-20T09:58:04.455Z,58.39
2023-03-20T10:00:36.660Z,58.53
2023-03-20T10:03:08.351Z,58.52
2023-03-20T10:05:44.236Z,58.65
2023-03-20T10:08:17.053Z,58.80
2023-03-20T10:10:52.211Z,58.70
2023-03-20T10:13:36.094Z,57.88
2023-03-20T10:16:09.484Z,57.70
2023-03-20T10:18:41.933Z,57.70
2023-03-20T10:21:16.266Z,57.41
2023-03-20T10:23:50.461Z,56.94
2023-03-20T10:26:22.540Z,56.94
2023-03-20T10:28:56.334Z,57.33
2023-03-20T10:31:34.487Z,56.98
2023-03-20T10:34:13.980Z,56.69
2023-03-20T10:36:51.259Z,56.86
2023-03-20T10:39:25.720Z,56.61
2023-03-20T10:41:57.865Z,56.91
2023-03-20T10:44:31.161Z,57.39
2023-03-20T10:47:02.896Z,57.32
2023-03-20T10:49:37.337Z,57.42
2023-03-20T10:52:12.156Z,57.54
2023-03-20T10:54:44.349Z,57.22
2023-03-20T10:57:19.690Z,57.57
2023-03-20T10:59:51.727Z,58.08
2023-03-20T11:02:23.794Z,58.43
2023-03-20T11:04:54.564Z,58.07
2023-03-20T11:07:27.835Z,58.37
2023-03-20T11:10:12.386Z,58.67
2023-03-20T11:12:44.039Z,59.16
2023-03-20T11:15:21.766Z,59.78
2023-03-20T11:17:57.579Z,60.56
2023-03-20T11:20:33.857Z,61.45
2023-03-20T11:23:06.564Z,61.96
2023-03-20T11:25:39.546Z,61.95
2023-03-20T11:28:23.777Z,62.08
2023-03-20T11:31:04.896Z,61.99
2023-03-20T11:33:40.469Z,57.81
2023-03-20T11:36:14.534Z,58.23
2023-03-20T11:38:47.586Z,59.24
2023-03-20T11:41:24.460Z,60.16
2023-03-20T11:43:56.514Z,60.67
2023-03-20T11:46:27.491Z,61.28
2023-03-20T11:49:09.081Z,61.50
2023-03-20T11:51:40.906Z,61.71
2023-03-20T11:54:16.235Z,62.00
2023-03-20T11:56:54.435Z,61.10
2023-03-20T11:59:27.536Z,58.25
2023-03-20T12:01:59.470Z,58.90
2023-03-20T12:04:31.780Z,58.98
2023-03-20T12:07:05.060Z,59.59
2023-03-20T12:09:41.864Z,60.16
2023-03-20T12:12:19.510Z,60.86
2023-03-20T12:14:56.836Z,61.01
2023-03-20T12:17:44.091Z,60.85
2023-03-20T12:20:21.541Z,60.51
2023-03-20T12:22:54.526Z,60.09
2023-03-20T12:25:27.101Z,59.98
2023-03-20T12:28:02.595Z,60.71
2023-03-20T12:30:43.400Z,61.25
2023-03-20T12:33:18.446Z,60.92
2023-03-20T12:35:52.026Z,59.80
2023-03-20T12:38:26.381Z,59.73
2023-03-20T12:41:01.595Z,60.13
2023-03-20T12:43:37.304Z,59.87
2023-03-20T12:46:10.888Z,60.28
2023-03-20T12:48:50.202Z,59.88
2023-03-20T12:51:25.633Z,59.01
2023-03-20T12:54:01.689Z,59.65
2023-03-20T12:56:39.885Z,60.27
2023-03-20T12:59:15.855Z,60.67
2023-03-20T13:01:51.008Z,60.81
2023-03-20T13:04:26.016Z,60.92
2023-03-20T13:06:58.830Z,61.40
2023-03-20T13:09:40.485Z,61.45
2023-03-20T13:12:17.524Z,61.70
2023-03-20T13:14:49.916Z,62.21
2023-03-20T13:17:24.798Z,63.33
2023-03-20T13:20:00.826Z,54.59
2023-03-20T13:22:34.096Z,55.20
2023-03-20T13:25:10.686Z,56.05
2023-03-20T13:27:44.803Z,55.68
2023-03-20T13:30:20.459Z,55.13
2023-03-20T13:32:56.255Z,54.67
2023-03-20T13:35:34.133Z,54.97
2023-03-20T13:38:09.139Z,55.79
2023-03-20T13:40:45.413Z,55.90
2023-03-20T13:43:21.356Z,55.19
2023-03-20T13:45:53.292Z,54.28
2023-03-20T13:48:27.612Z,54.49
2023-03-20T13:51:02.172Z,54.21
2023-03-20T13:53:37.186Z,54.66
2023-03-20T13:56:12.121Z,55.13
2023-03-20T13:58:59.246Z,56.20
2023-03-20T14:01:35.666Z,56.90
2023-03-20T14:04:10.963Z,57.54
2023-03-20T14:06:50.086Z,58.58
2023-03-20T14:09:35.833Z,59.46
2023-03-20T14:12:08.086Z,60.05
2023-03-20T14:14:44.796Z,61.06
2023-03-20T14:17:17.580Z,61.30
2023-03-20T14:19:47.053Z,61.85
2023-03-20T14:22:20.077Z,62.76
2023-03-20T14:24:56.279Z,60.91
2023-03-20T14:27:45.068Z,55.69
2023-03-20T14:30:30.086Z,57.18
2023-03-20T14:33:01.931Z,59.24
2023-03-20T14:35:37.879Z,60.49
2023-03-20T14:38:14.258Z,61.39
2023-03-20T14:40:52.900Z,62.07
2023-03-20T14:43:27.414Z,61.94
2023-03-20T14:46:00.897Z,61.96
2023-03-20T14:48:33.755Z,62.45
2023-03-20T14:51:08.746Z,60.14
2023-03-20T14:53:41.471Z,57.26
2023-03-20T14:56:14.203Z,58.29
2023-03-20T14:58:54.008Z,59.64
2023-03-20T15:01:42.152Z,60.69
2023-03-20T15:04:21.365Z,61.53
2023-03-20T15:06:55.595Z,62.07
2023-03-20T15:09:28.565Z,62.47
2023-03-20T15:12:04.470Z,59.49
2023-03-20T15:14:42.662Z,55.86
2023-03-20T15:17:19.676Z,57.45
2023-03-20T15:19:50.453Z,59.06
2023-03-20T15:22:22.036Z,60.10
2023-03-20T15:24:57.107Z,61.36
2023-03-20T15:27:30.934Z,62.23
2023-03-20T15:30:02.385Z,62.86
2023-03-20T15:32:34.171Z,57.71
2023-03-20T15:35:05.601Z,57.36
2023-03-20T15:37:36.324Z,58.95
2023-03-20T15:40:13.703Z,60.38
2023-03-20T15:42:44.758Z,61.59
2023-03-20T15:45:23.002Z,62.42
2023-03-20T15:48:00.273Z,62.75
2023-03-20T15:50:34.581Z,57.03
2023-03-20T15:53:06.185Z,57.11
2023-03-20T15:55:37.472Z,59.00
2023-03-20T15:58:08.512Z,60.33
2023-03-20T16:00:40.890Z,61.63
2023-03-20T16:03:16.113Z,62.70
2023-03-20T16:05:48.282Z,60.07
2023-03-20T16:08:23.503Z,57.70
2023-03-20T16:10:58.358Z,58.97
2023-03-20T16:13:31.280Z,60.68
2023-03-20T16:16:02.503Z,61.81
2023-03-20T16:18:35.116Z,62.24
2023-03-20T16:21:07.412Z,57.38
2023-03-20T16:23:40.124Z,57.90
2023-03-20T16:26:14.327Z,60.09
2023-03-20T16:28:47.040Z,61.77
2023-03-20T16:31:18.498Z,63.43
2023-03-20T16:33:49.909Z,59.44
2023-03-20T16:36:22.901Z,57.03
2023-03-20T16:38:52.039Z,58.74
2023-03-20T16:41:28.693Z,60.65
2023-03-20T16:43:59.594Z,62.00
2023-03-20T16:46:30.378Z,63.72
2023-03-20T16:49:17.849Z,62.16
2023-03-20T16:51:49.399Z,57.27
2023-03-20T16:54:21.535Z,57.49
2023-03-20T16:56:54.900Z,60.03
2023-03-20T16:59:26.721Z,61.45
2023-03-20T17:02:00.527Z,63.20
2023-03-20T17:04:35.289Z,62.16
2023-03-20T17:07:11.455Z,58.54
2023-03-20T17:09:52.827Z,57.44
2023-03-20T17:12:24.847Z,59.34
2023-03-20T17:14:56.958Z,60.34
2023-03-20T17:17:27.809Z,61.91
2023-03-20T17:19:59.741Z,64.68
2023-03-20T17:22:30.904Z,62.00
2023-03-20T17:25:02.109Z,58.26
2023-03-20T17:27:34.787Z,58.68
2023-03-20T17:30:06.544Z,61.04
2023-03-20T17:32:37.997Z,63.67
2023-03-20T17:35:09.618Z,60.31
2023-03-20T17:37:41.917Z,57.56
2023-03-20T17:40:17.891Z,59.76
2023-03-20T17:42:49.113Z,62.57
2023-03-20T17:45:21.250Z,62.69
2023-03-20T18:07:34.418Z,61.54
2023-03-20T18:10:06.125Z,58.83
2023-03-20T18:12:37.222Z,60.81
2023-03-20T18:22:08.336Z,58.83
2023-03-20T18:24:42.822Z,61.75
2023-03-20T18:27:15.550Z,64.73
2023-03-20T18:29:46.290Z,62.49
2023-03-20T18:32:16.933Z,59.30
2023-03-20T18:34:47.660Z,59.41
2023-03-20T18:37:19.875Z,62.86
2023-03-20T18:39:52.705Z,62.57
2023-03-20T18:42:23.848Z,60.24
2023-03-20T18:44:55.212Z,59.44
2023-03-20T18:47:25.925Z,62.52
2023-03-20T18:49:56.293Z,63.08
2023-03-20T18:52:27.718Z,60.04
2023-03-20T18:54:58.335Z,59.72
2023-03-20T18:57:29.581Z,63.14
2023-03-20T19:00:00.208Z,64.47
2023-03-20T19:02:31.349Z,61.65
2023-03-20T19:05:02.042Z,59.46
2023-03-20T19:07:32.926Z,59.50
2023-03-20T19:10:03.579Z,63.61
2023-03-20T19:12:34.453Z,62.07
2023-03-20T19:15:05.740Z,59.45
2023-03-20T19:17:36.880Z,59.69
2023-03-20T19:20:08.434Z,63.83
2023-03-20T19:22:39.476Z,63.04
2023-03-20T19:25:10.995Z,59.95
2023-03-20T19:27:43.610Z,59.32
2023-03-20T19:30:17.024Z,63.39
2023-03-20T19:32:47.846Z,63.23
2023-03-20T19:38:12.069Z,59.62
2023-03-20T19:40:43.572Z,63.71
2023-03-20T19:43:15.662Z,62.82
2023-03-20T19:45:46.525Z,60.52
2023-03-20T19:48:18.027Z,59.52
2023-03-20T19:50:51.133Z,59.67
2023-03-20T19:53:25.436Z,63.15
2023-03-20T19:55:56.676Z,66.56
2023-03-20T19:58:27.635Z,64.39
2023-03-20T20:00:59.789Z,62.63
2023-03-20T20:03:34.338Z,61.78
2023-03-20T20:06:05.875Z,61.39
2023-03-20T20:08:47.976Z,60.77
2023-03-20T20:11:19.508Z,59.87
2023-03-20T20:14:05.722Z,58.13
2023-03-20T20:16:39.886Z,62.33
2023-03-20T20:19:11.939Z,64.13
2023-03-20T20:24:34.009Z,62.14
2023-03-20T20:27:17.846Z,62.08
2023-03-20T20:29:50.399Z,61.31
2023-03-20T20:32:22.272Z,60.34
2023-03-20T20:38:30.699Z,60.22
2023-03-20T20:40:36.178Z,63.87
2023-03-20T20:43:10.297Z,63.27
2023-03-20T20:45:42.145Z,62.45
2023-03-20T20:48:13.266Z,60.76
2023-03-20T20:50:47.101Z,58.68
2023-03-20T20:53:17.755Z,59.00
2023-03-20T20:55:48.638Z,62.99
2023-03-20T20:58:19.566Z,66.70
2023-03-20T21:00:55.144Z,64.18
2023-03-20T21:03:26.561Z,61.51
2023-03-20T21:05:57.736Z,61.65
2023-03-20T21:08:28.381Z,60.91
2023-03-20T21:10:59.938Z,58.70
2023-03-20T21:13:30.593Z,61.12
2023-03-20T21:16:02.535Z,62.81
2023-03-20T21:18:33.768Z,61.53
2023-03-20T21:21:08.205Z,60.43
2023-03-20T21:31:12.566Z,62.49
2023-03-20T21:33:37.424Z,59.85
2023-03-20T21:36:08.697Z,60.39
2023-03-20T21:41:31.572Z,63.24
2023-03-20T21:44:03.558Z,60.15
2023-03-20T22:01:39.283Z,61.26
2023-03-20T22:04:37.634Z,60.16
2023-03-20T22:10:14.010Z,61.87
2023-03-20T22:27:24.747Z,62.09
2023-03-20T22:30:04.690Z,60.46
2023-03-20T22:33:11.598Z,58.93
2023-03-20T22:46:44.793Z,64.39
2023-03-20T22:49:16.671Z,61.40
2023-03-20T22:52:04.627Z,60.38
2023-03-20T22:54:38.502Z,59.07
2023-03-20T22:57:09.224Z,63.45
2023-03-20T22:59:40.476Z,63.57
2023-03-20T23:02:11.632Z,60.68
2023-03-20T23:04:42.303Z,60.21
2023-03-20T23:07:13.215Z,59.51
2023-03-20T23:09:43.980Z,61.50
2023-03-20T23:12:14.823Z,64.14
2023-03-20T23:14:46.343Z,63.04
2023-03-20T23:17:17.148Z,61.79
2023-03-20T23:19:52.142Z,60.77
2023-03-20T23:22:24.850Z,59.65
2023-03-20T23:24:59.877Z,64.02
2023-03-20T23:27:33.488Z,67.01
2023-03-20T23:30:04.648Z,65.47
2023-03-20T23:32:37.512Z,63.85
2023-03-20T23:35:09.018Z,62.70
2023-03-20T23:37:39.902Z,62.26
2023-03-20T23:40:12.393Z,61.50
2023-03-20T23:42:43.006Z,60.72
2023-03-20T23:45:20.350Z,58.78
2023-03-20T23:47:51.825Z,61.77
2023-03-20T23:50:34.066Z,65.00
2023-03-20T23:53:19.954Z,63.05
2023-03-20T23:55:53.327Z,59.84
2023-03-20T23:58:24.787Z,61.05
